createdAt,value
2019-03-28T00:00:08.083Z,10.293579
2019-03-28T00:00:19.790Z,10.273438
2019-03-28T00:00:31.906Z,10.273438
2019-03-28T00:00:43.968Z,10.253296
2019-03-28T00:00:56.020Z,10.263367
2019-03-28T00:01:08.077Z,10.233154
2019-03-28T00:01:20.191Z,10.253296
2019-03-28T00:01:32.276Z,10.223083
2019-03-28T00:01:44.407Z,10.223083
2019-03-28T00:01:56.441Z,10.1828
2019-03-28T00:02:08.541Z,10.1828
2019-03-28T00:02:20.683Z,10.172729
2019-03-28T00:02:32.729Z,10.1828
2019-03-28T00:02:44.827Z,10.172729
2019-03-28T00:02:56.859Z,10.172729
2019-03-28T00:03:08.908Z,10.152588
2019-03-28T00:03:21.072Z,10.152588
2019-03-28T00:03:33.159Z,10.142517
2019-03-28T00:03:46.204Z,10.142517
2019-03-28T00:03:58.315Z,10.142517
2019-03-28T00:04:10.389Z,10.142517
2019-03-28T00:04:22.490Z,10.122375
2019-03-28T00:04:35.581Z,10.142517
2019-03-28T00:04:47.683Z,10.142517
2019-03-28T00:04:59.775Z,10.142517
2019-03-28T00:05:11.851Z,10.112305
2019-03-28T00:05:25.890Z,10.112305
2019-03-28T00:05:37.985Z,10.122375
2019-03-28T00:05:50.118Z,10.122375
2019-03-28T00:06:03.194Z,10.112305
2019-03-28T00:06:15.303Z,10.112305
2019-03-28T00:06:27.404Z,10.112305
2019-03-28T00:06:40.559Z,10.112305
2019-03-28T00:06:52.608Z,10.112305
2019-03-28T00:07:04.705Z,10.092163
2019-03-28T00:07:16.774Z,10.092163
2019-03-28T00:07:30.843Z,10.112305
2019-03-28T00:07:42.946Z,10.092163
2019-03-28T00:07:54.998Z,10.112305
2019-03-28T00:08:07.087Z,10.092163
2019-03-28T00:08:21.212Z,10.092163
2019-03-28T00:08:33.297Z,10.082092
2019-03-28T00:08:46.328Z,10.082092
2019-03-28T00:08:58.410Z,10.072021
2019-03-28T00:09:12.455Z,10.072021
2019-03-28T00:09:24.577Z,10.05188
2019-03-28T00:09:36.641Z,10.072021
2019-03-28T00:09:49.699Z,10.072021
2019-03-28T00:10:02.451Z,10.05188
2019-03-28T00:10:13.863Z,10.05188
2019-03-28T00:10:25.945Z,10.05188
2019-03-28T00:10:37.997Z,10.05188
2019-03-28T00:10:50.080Z,10.05188
2019-03-28T00:11:02.152Z,10.05188
2019-03-28T00:11:14.239Z,10.05188
2019-03-28T00:11:26.368Z,10.041809
2019-03-28T00:11:38.483Z,10.041809
2019-03-28T00:11:50.635Z,10.021667
2019-03-28T00:12:02.680Z,10.011597
2019-03-28T00:12:15.100Z,10.011597
2019-03-28T00:12:26.800Z,10.021667
2019-03-28T00:12:38.850Z,10.021667
2019-03-28T00:12:50.956Z,10.021667
2019-03-28T00:13:03.017Z,10.011597
2019-03-28T00:13:15.090Z,10.011597
2019-03-28T00:13:27.160Z,10.011597
2019-03-28T00:13:39.232Z,9.991455
2019-03-28T00:13:52.307Z,10.011597
2019-03-28T00:14:05.365Z,9.991455
2019-03-28T00:14:17.411Z,10.011597
2019-03-28T00:14:29.536Z,9.991455
2019-03-28T00:14:41.589Z,9.991455
2019-03-28T00:14:53.744Z,9.971313
2019-03-28T00:15:05.816Z,9.991455
2019-03-28T00:15:17.912Z,9.961243
2019-03-28T00:15:30.028Z,9.971313
2019-03-28T00:15:43.126Z,9.961243
2019-03-28T00:15:55.207Z,9.941101
2019-03-28T00:16:07.313Z,9.961243
2019-03-28T00:16:19.439Z,9.941101
2019-03-28T00:16:31.489Z,9.961243
2019-03-28T00:16:43.560Z,9.961243
2019-03-28T00:16:55.679Z,9.961243
2019-03-28T00:17:07.752Z,9.941101
2019-03-28T00:17:19.813Z,9.941101
2019-03-28T00:17:33.848Z,9.941101
2019-03-28T00:17:45.906Z,9.941101
2019-03-28T00:17:57.968Z,9.93103
2019-03-28T00:18:10.022Z,9.941101
2019-03-28T00:18:22.131Z,9.93103
2019-03-28T00:18:34.197Z,9.93103
2019-03-28T00:18:46.246Z,9.93103
2019-03-28T00:18:59.297Z,9.910889
2019-03-28T00:19:11.411Z,9.910889
2019-03-28T00:19:23.483Z,9.93103
2019-03-28T00:19:35.549Z,9.93103
2019-03-28T00:19:47.613Z,9.910889
2019-03-28T00:19:59.673Z,9.900818
2019-03-28T00:20:12.761Z,9.910889
2019-03-28T00:20:25.809Z,9.900818
2019-03-28T00:20:37.898Z,9.900818
2019-03-28T00:20:49.950Z,9.890747
2019-03-28T00:21:02.028Z,9.900818
2019-03-28T00:21:14.085Z,9.870605
2019-03-28T00:21:26.309Z,9.900818
2019-03-28T00:21:38.317Z,9.870605
2019-03-28T00:21:50.404Z,9.890747
2019-03-28T00:22:05.361Z,9.870605
2019-03-28T00:22:17.260Z,9.890747
2019-03-28T00:22:28.589Z,9.890747
2019-03-28T00:22:40.635Z,9.890747
2019-03-28T00:22:52.720Z,9.890747
2019-03-28T00:23:04.788Z,9.890747
2019-03-28T00:23:17.855Z,9.890747
2019-03-28T00:23:29.972Z,9.870605
2019-03-28T00:23:42.020Z,9.870605
2019-03-28T00:23:54.104Z,9.890747
2019-03-28T00:24:07.490Z,9.890747
2019-03-28T00:24:19.587Z,9.890747
2019-03-28T00:24:31.694Z,9.890747
2019-03-28T00:24:43.777Z,9.870605
2019-03-28T00:24:56.842Z,9.890747
2019-03-28T00:25:08.952Z,9.890747
2019-03-28T00:25:20.997Z,9.890747
2019-03-28T00:25:33.076Z,9.890747
2019-03-28T00:25:47.207Z,9.890747
2019-03-28T00:25:59.276Z,9.890747
2019-03-28T00:26:12.337Z,9.900818
2019-03-28T00:26:31.808Z,9.890747
2019-03-28T00:26:43.414Z,9.890747
2019-03-28T00:26:55.503Z,9.890747
2019-03-28T00:27:08.551Z,9.870605
2019-03-28T00:27:21.190Z,9.870605
2019-03-28T00:27:32.692Z,9.870605
2019-03-28T00:27:44.757Z,9.870605
2019-03-28T00:27:56.841Z,9.870605
2019-03-28T00:28:08.945Z,9.870605
2019-03-28T00:28:20.994Z,9.870605
2019-03-28T00:28:33.084Z,9.870605
2019-03-28T00:28:46.134Z,9.860535
2019-03-28T00:28:58.193Z,9.870605
2019-03-28T00:29:11.276Z,9.860535
2019-03-28T00:29:24.359Z,9.860535
2019-03-28T00:29:36.409Z,9.860535
2019-03-28T00:29:48.499Z,9.840393
2019-03-28T00:30:01.571Z,9.840393
2019-03-28T00:30:14.678Z,9.870605
2019-03-28T00:30:26.738Z,9.840393
2019-03-28T00:30:38.827Z,9.840393
2019-03-28T00:30:50.879Z,9.860535
2019-03-28T00:31:02.989Z,9.840393
2019-03-28T00:31:15.070Z,9.840393
2019-03-28T00:31:27.105Z,9.860535
2019-03-28T00:31:39.206Z,9.860535
2019-03-28T00:31:53.252Z,9.840393
2019-03-28T00:32:05.306Z,9.840393
2019-03-28T00:32:17.364Z,9.840393
2019-03-28T00:32:29.472Z,9.840393
2019-03-28T00:32:41.594Z,9.840393
2019-03-28T00:32:54.703Z,9.830322
2019-03-28T00:33:07.742Z,9.830322
2019-03-28T00:33:19.818Z,9.830322
2019-03-28T00:33:32.904Z,9.810181
2019-03-28T00:33:44.981Z,9.830322
2019-03-28T00:33:57.041Z,9.830322
2019-03-28T00:34:09.216Z,9.810181
2019-03-28T00:34:21.271Z,9.840393
2019-03-28T00:34:33.334Z,9.830322
2019-03-28T00:34:45.436Z,9.840393
2019-03-28T00:34:57.527Z,9.840393
2019-03-28T00:35:09.642Z,9.810181
2019-03-28T00:35:21.678Z,9.830322
2019-03-28T00:35:33.768Z,9.830322
2019-03-28T00:35:45.849Z,9.830322
2019-03-28T00:35:58.934Z,9.840393
2019-03-28T00:36:11.028Z,9.830322
2019-03-28T00:36:23.077Z,9.830322
2019-03-28T00:36:35.151Z,9.830322
2019-03-28T00:36:47.218Z,9.840393
2019-03-28T00:37:00.250Z,9.830322
2019-03-28T00:37:14.321Z,9.830322
2019-03-28T00:37:26.364Z,9.830322
2019-03-28T00:37:38.426Z,9.830322
2019-03-28T00:37:50.473Z,9.810181
2019-03-28T00:38:02.547Z,9.810181
2019-03-28T00:38:14.633Z,9.810181
2019-03-28T00:38:26.761Z,9.830322
2019-03-28T00:38:39.825Z,9.810181
2019-03-28T00:38:51.937Z,9.810181
2019-03-28T00:39:04.068Z,9.810181
2019-03-28T00:39:16.122Z,9.810181
2019-03-28T00:39:28.277Z,9.810181
2019-03-28T00:39:40.349Z,9.810181
2019-03-28T00:39:52.399Z,9.810181
2019-03-28T00:40:04.793Z,9.810181
2019-03-28T00:40:17.532Z,9.810181
2019-03-28T00:40:30.207Z,9.810181
2019-03-28T00:40:42.661Z,9.810181
2019-03-28T00:40:55.199Z,9.810181
2019-03-28T00:41:06.828Z,9.790039
2019-03-28T00:41:20.202Z,9.790039
2019-03-28T00:41:32.012Z,9.779968
2019-03-28T00:41:44.077Z,9.790039
2019-03-28T00:41:56.114Z,9.810181
2019-03-28T00:42:08.209Z,9.790039
2019-03-28T00:42:20.300Z,9.810181
2019-03-28T00:42:32.409Z,9.790039
2019-03-28T00:42:45.317Z,9.790039
2019-03-28T00:42:57.383Z,9.779968
2019-03-28T00:43:09.452Z,9.779968
2019-03-28T00:43:21.532Z,9.779968
2019-03-28T00:43:33.662Z,9.790039
2019-03-28T00:43:46.746Z,9.779968
2019-03-28T00:43:58.827Z,9.779968
2019-03-28T00:44:10.897Z,9.779968
2019-03-28T00:44:22.956Z,9.779968
2019-03-28T00:44:35.024Z,9.759827
2019-03-28T00:44:47.141Z,9.759827
2019-03-28T00:44:59.221Z,9.779968
2019-03-28T00:45:11.300Z,9.749756
2019-03-28T00:45:23.399Z,9.749756
2019-03-28T00:45:35.473Z,9.749756
2019-03-28T00:45:48.541Z,9.749756
2019-03-28T00:46:00.598Z,9.749756
2019-03-28T00:46:13.648Z,9.749756
2019-03-28T00:46:25.757Z,9.749756
2019-03-28T00:46:37.806Z,9.749756
2019-03-28T00:46:49.880Z,9.749756
2019-03-28T00:47:01.970Z,9.739685
2019-03-28T00:47:14.073Z,9.749756
2019-03-28T00:47:26.119Z,9.749756
2019-03-28T00:47:40.195Z,9.739685
2019-03-28T00:47:52.256Z,9.749756
2019-03-28T00:48:05.309Z,9.749756
2019-03-28T00:48:17.365Z,9.739685
2019-03-28T00:48:29.640Z,9.739685
2019-03-28T00:48:41.729Z,9.739685
2019-03-28T00:48:53.876Z,9.739685
2019-03-28T00:49:05.915Z,9.719543
2019-03-28T00:49:18.126Z,9.719543
2019-03-28T00:49:32.101Z,9.719543
2019-03-28T00:49:45.225Z,9.709473
2019-03-28T00:49:57.302Z,9.719543
2019-03-28T00:50:09.345Z,9.709473
2019-03-28T00:50:21.423Z,9.709473
2019-03-28T00:50:36.474Z,9.709473
2019-03-28T00:50:48.566Z,9.709473
2019-03-28T00:51:00.619Z,9.709473
2019-03-28T00:51:12.750Z,9.709473
2019-03-28T00:51:25.146Z,9.709473
2019-03-28T00:51:37.929Z,9.709473
2019-03-28T00:51:51.977Z,9.689331
2019-03-28T00:52:04.063Z,9.689331
2019-03-28T00:52:16.211Z,9.67926
2019-03-28T00:52:29.205Z,9.689331
2019-03-28T00:52:41.341Z,9.709473
2019-03-28T00:52:53.444Z,9.689331
2019-03-28T00:53:06.311Z,9.689331
2019-03-28T00:53:17.600Z,9.689331
2019-03-28T00:53:29.723Z,9.709473
2019-03-28T00:53:41.821Z,9.719543
2019-03-28T00:53:53.900Z,9.709473
2019-03-28T00:54:05.974Z,9.719543
2019-03-28T00:54:18.067Z,9.719543
2019-03-28T00:54:30.137Z,9.719543
2019-03-28T00:54:42.196Z,9.709473
2019-03-28T00:54:54.273Z,9.719543
2019-03-28T00:55:07.296Z,9.719543
2019-03-28T00:55:19.397Z,9.739685
2019-03-28T00:55:31.493Z,9.709473
2019-03-28T00:55:43.556Z,9.719543
2019-03-28T00:55:55.610Z,9.709473
2019-03-28T00:56:07.780Z,9.709473
2019-03-28T00:56:20.837Z,9.719543
2019-03-28T00:56:45.190Z,9.709473
2019-03-28T00:56:53.956Z,9.719543
2019-03-28T00:57:06.034Z,9.709473
2019-03-28T00:57:18.179Z,9.689331
2019-03-28T00:57:30.234Z,9.709473
2019-03-28T00:57:42.308Z,9.709473
2019-03-28T00:57:55.353Z,9.689331
2019-03-28T00:58:07.402Z,9.709473
2019-03-28T00:58:20.483Z,9.67926
2019-03-28T00:58:32.573Z,9.67926
2019-03-28T00:58:44.625Z,9.67926
2019-03-28T00:58:56.713Z,9.659119
2019-03-28T00:59:08.825Z,9.67926
2019-03-28T00:59:20.888Z,9.659119
2019-03-28T00:59:33.006Z,9.67926
2019-03-28T00:59:45.101Z,9.67926
2019-03-28T00:59:57.172Z,9.67926
2019-03-28T01:00:09.255Z,9.659119
2019-03-28T01:00:22.342Z,9.659119
2019-03-28T01:00:34.527Z,9.67926
2019-03-28T01:00:46.590Z,9.659119
2019-03-28T01:00:58.665Z,9.67926
2019-03-28T01:01:10.776Z,9.659119
2019-03-28T01:01:22.889Z,9.649048
2019-03-28T01:01:35.059Z,9.659119
2019-03-28T01:01:47.178Z,9.649048
2019-03-28T01:01:59.260Z,9.649048
2019-03-28T01:02:11.317Z,9.649048
2019-03-28T01:02:23.401Z,9.659119
2019-03-28T01:02:35.450Z,9.659119
2019-03-28T01:02:47.499Z,9.659119
2019-03-28T01:02:59.591Z,9.67926
2019-03-28T01:03:11.743Z,9.67926
2019-03-28T01:03:23.802Z,9.659119
2019-03-28T01:03:36.427Z,9.67926
2019-03-28T01:03:48.021Z,9.659119
2019-03-28T01:04:00.074Z,9.67926
2019-03-28T01:04:12.235Z,9.67926
2019-03-28T01:04:24.346Z,9.67926
2019-03-28T01:04:36.397Z,9.67926
2019-03-28T01:04:49.437Z,9.67926
2019-03-28T01:05:01.619Z,9.689331
2019-03-28T01:05:13.770Z,9.67926
2019-03-28T01:05:25.850Z,9.67926
2019-03-28T01:05:37.972Z,9.67926
2019-03-28T01:05:50.073Z,9.67926
2019-03-28T01:06:02.223Z,9.689331
2019-03-28T01:06:14.237Z,9.67926
2019-03-28T01:06:26.338Z,9.709473
2019-03-28T01:06:38.379Z,9.659119
2019-03-28T01:06:50.418Z,9.689331
2019-03-28T01:07:02.539Z,9.67926
2019-03-28T01:07:14.662Z,9.67926
2019-03-28T01:07:26.727Z,9.689331
2019-03-28T01:07:38.875Z,9.67926
2019-03-28T01:07:50.958Z,9.67926
2019-03-28T01:08:03.027Z,9.67926
2019-03-28T01:08:15.131Z,9.67926
2019-03-28T01:08:27.229Z,9.67926
2019-03-28T01:08:39.298Z,9.67926
2019-03-28T01:08:51.365Z,9.67926
2019-03-28T01:09:05.586Z,9.659119
2019-03-28T01:09:17.565Z,9.659119
2019-03-28T01:09:29.607Z,9.67926
2019-03-28T01:09:41.659Z,9.67926
2019-03-28T01:09:53.724Z,9.67926
2019-03-28T01:10:05.811Z,9.67926
2019-03-28T01:10:17.878Z,9.67926
2019-03-28T01:10:29.958Z,9.67926
2019-03-28T01:10:42.043Z,9.67926
2019-03-28T01:10:55.105Z,9.67926
2019-03-28T01:11:07.175Z,9.67926
2019-03-28T01:11:19.328Z,9.67926
2019-03-28T01:11:31.451Z,9.67926
2019-03-28T01:11:43.548Z,9.67926
2019-03-28T01:11:56.625Z,9.659119
2019-03-28T01:12:08.721Z,9.67926
2019-03-28T01:12:20.754Z,9.67926
2019-03-28T01:12:32.873Z,9.67926
2019-03-28T01:12:45.047Z,9.659119
2019-03-28T01:12:57.119Z,9.67926
2019-03-28T01:13:10.178Z,9.659119
2019-03-28T01:13:22.289Z,9.649048
2019-03-28T01:13:34.415Z,9.649048
2019-03-28T01:13:46.494Z,9.659119
2019-03-28T01:13:58.562Z,9.649048
2019-03-28T01:14:10.656Z,9.659119
2019-03-28T01:14:22.770Z,9.649048
2019-03-28T01:14:34.840Z,9.659119
2019-03-28T01:14:46.923Z,9.649048
2019-03-28T01:14:59.003Z,9.659119
2019-03-28T01:15:11.059Z,9.649048
2019-03-28T01:15:23.345Z,9.659119
2019-03-28T01:15:36.213Z,9.649048
2019-03-28T01:15:48.557Z,9.649048
2019-03-28T01:16:00.406Z,9.649048
2019-03-28T01:16:12.535Z,9.649048
2019-03-28T01:16:24.635Z,9.649048
2019-03-28T01:16:37.680Z,9.649048
2019-03-28T01:16:49.768Z,9.649048
2019-03-28T01:17:01.865Z,9.659119
2019-03-28T01:17:13.978Z,9.649048
2019-03-28T01:17:26.084Z,9.659119
2019-03-28T01:17:38.232Z,9.638977
2019-03-28T01:17:50.323Z,9.659119
2019-03-28T01:18:02.406Z,9.649048
2019-03-28T01:18:14.478Z,9.649048
2019-03-28T01:18:26.532Z,9.638977
2019-03-28T01:18:38.629Z,9.649048
2019-03-28T01:18:50.730Z,9.649048
2019-03-28T01:19:03.787Z,9.638977
2019-03-28T01:19:16.841Z,9.638977
2019-03-28T01:19:28.985Z,9.638977
2019-03-28T01:19:41.074Z,9.649048
2019-03-28T01:19:53.183Z,9.649048
2019-03-28T01:20:05.249Z,9.638977
2019-03-28T01:20:17.358Z,9.649048
2019-03-28T01:20:29.401Z,9.638977
2019-03-28T01:20:41.538Z,9.649048
2019-03-28T01:20:53.580Z,9.638977
2019-03-28T01:21:05.652Z,9.638977
2019-03-28T01:21:17.848Z,9.649048
2019-03-28T01:21:29.921Z,9.649048
2019-03-28T01:21:42.018Z,9.638977
2019-03-28T01:21:54.128Z,9.638977
2019-03-28T01:22:06.260Z,9.649048
2019-03-28T01:22:18.258Z,9.638977
2019-03-28T01:22:31.045Z,9.638977
2019-03-28T01:22:42.484Z,9.649048
2019-03-28T01:22:54.570Z,9.649048
2019-03-28T01:23:06.628Z,9.649048
2019-03-28T01:23:18.760Z,9.649048
2019-03-28T01:23:30.837Z,9.638977
2019-03-28T01:23:42.904Z,9.638977
2019-03-28T01:23:55.011Z,9.649048
2019-03-28T01:24:08.106Z,9.649048
2019-03-28T01:24:20.195Z,9.649048
2019-03-28T01:24:32.301Z,9.649048
2019-03-28T01:24:44.372Z,9.649048
2019-03-28T01:24:57.859Z,9.638977
2019-03-28T01:25:10.502Z,9.638977
2019-03-28T01:25:22.563Z,9.649048
2019-03-28T01:25:34.650Z,9.659119
2019-03-28T01:25:46.730Z,9.649048
2019-03-28T01:25:58.820Z,9.659119
2019-03-28T01:26:10.874Z,9.638977
2019-03-28T01:26:23.928Z,9.659119
2019-03-28T01:26:36.005Z,9.649048
2019-03-28T01:26:57.365Z,9.649048
2019-03-28T01:27:08.132Z,9.649048
2019-03-28T01:27:20.190Z,9.649048
2019-03-28T01:27:32.278Z,9.638977
2019-03-28T01:27:44.348Z,9.638977
2019-03-28T01:27:56.439Z,9.649048
2019-03-28T01:28:09.503Z,9.638977
2019-03-28T01:28:21.577Z,9.638977
2019-03-28T01:28:33.713Z,9.659119
2019-03-28T01:28:45.754Z,9.649048
2019-03-28T01:28:57.836Z,9.649048
2019-03-28T01:29:10.921Z,9.649048
2019-03-28T01:29:23.001Z,9.638977
2019-03-28T01:29:36.116Z,9.649048
2019-03-28T01:29:48.217Z,9.608765
2019-03-28T01:30:00.329Z,9.608765
2019-03-28T01:30:12.406Z,9.638977
2019-03-28T01:30:24.500Z,9.608765
2019-03-28T01:30:36.606Z,9.638977
2019-03-28T01:30:49.812Z,9.608765
2019-03-28T01:31:01.883Z,9.638977
2019-03-28T01:31:14.012Z,9.638977
2019-03-28T01:31:26.072Z,9.638977
2019-03-28T01:31:38.167Z,9.638977
2019-03-28T01:31:50.253Z,9.638977
2019-03-28T01:32:02.396Z,9.638977
2019-03-28T01:32:14.459Z,9.638977
2019-03-28T01:32:26.571Z,9.638977
2019-03-28T01:32:38.656Z,9.638977
2019-03-28T01:32:50.772Z,9.638977
2019-03-28T01:33:02.839Z,9.638977
2019-03-28T01:33:14.913Z,9.638977
2019-03-28T01:33:26.987Z,9.649048
2019-03-28T01:33:39.082Z,9.649048
2019-03-28T01:33:51.163Z,9.649048
2019-03-28T01:34:04.236Z,9.638977
2019-03-28T01:34:16.359Z,9.649048
2019-03-28T01:34:28.420Z,9.638977
2019-03-28T01:34:40.468Z,9.649048
2019-03-28T01:34:52.584Z,9.638977
2019-03-28T01:35:04.641Z,9.638977
2019-03-28T01:35:17.706Z,9.638977
2019-03-28T01:35:29.791Z,9.638977
2019-03-28T01:35:42.843Z,9.608765
2019-03-28T01:35:54.916Z,9.638977
2019-03-28T01:36:07.992Z,9.638977
2019-03-28T01:36:20.070Z,9.638977
2019-03-28T01:36:32.165Z,9.638977
2019-03-28T01:36:44.227Z,9.638977
2019-03-28T01:36:56.321Z,9.638977
2019-03-28T01:37:08.535Z,9.638977
2019-03-28T01:37:21.532Z,9.608765
2019-03-28T01:37:33.650Z,9.608765
2019-03-28T01:37:45.746Z,9.608765
2019-03-28T01:37:57.842Z,9.608765
2019-03-28T01:38:09.931Z,9.638977
2019-03-28T01:38:22.041Z,9.608765
2019-03-28T01:38:34.198Z,9.638977
2019-03-28T01:38:46.265Z,9.638977
2019-03-28T01:38:58.329Z,9.638977
2019-03-28T01:39:10.430Z,9.608765
2019-03-28T01:39:22.532Z,9.608765
2019-03-28T01:39:35.680Z,9.638977
2019-03-28T01:39:48.736Z,9.608765
2019-03-28T01:40:00.871Z,9.638977
2019-03-28T01:40:13.904Z,9.638977
2019-03-28T01:40:26.258Z,9.638977
2019-03-28T01:40:38.024Z,9.608765
2019-03-28T01:40:50.085Z,9.638977
2019-03-28T01:41:02.185Z,9.608765
2019-03-28T01:41:14.255Z,9.638977
2019-03-28T01:41:27.346Z,9.608765
2019-03-28T01:41:39.452Z,9.638977
2019-03-28T01:41:51.497Z,9.608765
2019-03-28T01:42:04.581Z,9.608765
2019-03-28T01:42:16.695Z,9.608765
2019-03-28T01:42:28.748Z,9.638977
2019-03-28T01:42:41.687Z,9.638977
2019-03-28T01:42:53.758Z,9.638977
2019-03-28T01:43:07.793Z,9.608765
2019-03-28T01:43:19.864Z,9.608765
2019-03-28T01:43:31.940Z,9.638977
2019-03-28T01:43:44.011Z,9.649048
2019-03-28T01:43:56.070Z,9.649048
2019-03-28T01:44:08.164Z,9.649048
2019-03-28T01:44:22.223Z,9.649048
2019-03-28T01:44:34.240Z,9.649048
2019-03-28T01:44:46.321Z,9.638977
2019-03-28T01:44:58.396Z,9.649048
2019-03-28T01:45:11.507Z,9.638977
2019-03-28T01:45:24.554Z,9.649048
2019-03-28T01:45:36.603Z,9.649048
2019-03-28T01:45:49.685Z,9.659119
2019-03-28T01:46:01.786Z,9.649048
2019-03-28T01:46:13.873Z,9.659119
2019-03-28T01:46:26.029Z,9.649048
2019-03-28T01:46:39.025Z,9.659119
2019-03-28T01:46:51.134Z,9.649048
2019-03-28T01:47:05.175Z,9.659119
2019-03-28T01:47:18.060Z,9.649048
2019-03-28T01:47:29.339Z,9.649048
2019-03-28T01:47:43.158Z,9.659119
2019-03-28T01:47:54.465Z,9.659119
2019-03-28T01:48:08.260Z,9.659119
2019-03-28T01:48:20.736Z,9.659119
2019-03-28T01:48:33.212Z,9.659119
2019-03-28T01:48:44.888Z,9.638977
2019-03-28T01:48:58.390Z,9.638977
2019-03-28T01:49:11.119Z,9.659119
2019-03-28T01:49:23.237Z,9.649048
2019-03-28T01:49:35.323Z,9.649048
2019-03-28T01:49:47.378Z,9.638977
2019-03-28T01:49:59.451Z,9.649048
2019-03-28T01:50:11.526Z,9.638977
2019-03-28T01:50:23.625Z,9.638977
2019-03-28T01:50:35.659Z,9.638977
2019-03-28T01:50:47.732Z,9.649048
2019-03-28T01:50:59.809Z,9.638977
2019-03-28T01:51:11.870Z,9.638977
2019-03-28T01:51:24.931Z,9.638977
2019-03-28T01:51:38.012Z,9.638977
2019-03-28T01:51:50.047Z,9.638977
2019-03-28T01:52:04.239Z,9.638977
2019-03-28T01:52:15.180Z,9.608765
2019-03-28T01:52:27.241Z,9.638977
2019-03-28T01:52:40.331Z,9.608765
2019-03-28T01:52:52.366Z,9.608765
2019-03-28T01:53:04.442Z,9.638977
2019-03-28T01:53:16.510Z,9.638977
2019-03-28T01:53:28.568Z,9.638977
2019-03-28T01:53:41.703Z,9.638977
2019-03-28T01:53:53.802Z,9.638977
2019-03-28T01:54:05.905Z,9.608765
2019-03-28T01:54:18.941Z,9.638977
2019-03-28T01:54:31.047Z,9.638977
2019-03-28T01:54:44.101Z,9.608765
2019-03-28T01:54:56.166Z,9.638977
2019-03-28T01:55:08.255Z,9.608765
2019-03-28T01:55:21.093Z,9.638977
2019-03-28T01:55:32.373Z,9.608765
2019-03-28T01:55:44.545Z,9.608765
2019-03-28T01:55:56.619Z,9.608765
2019-03-28T01:56:08.677Z,9.608765
2019-03-28T01:56:20.736Z,9.608765
2019-03-28T01:56:34.798Z,9.638977
2019-03-28T01:56:46.904Z,9.608765
2019-03-28T01:57:10.618Z,9.608765
2019-03-28T01:57:19.956Z,9.608765
2019-03-28T01:57:32.044Z,9.608765
2019-03-28T01:57:44.143Z,9.608765
2019-03-28T01:57:56.215Z,9.638977
2019-03-28T01:58:09.267Z,9.608765
2019-03-28T01:58:21.336Z,9.638977
2019-03-28T01:58:33.682Z,9.638977
2019-03-28T01:58:45.743Z,9.638977
2019-03-28T01:58:57.786Z,9.598694
2019-03-28T01:59:09.853Z,9.638977
2019-03-28T01:59:22.907Z,9.638977
2019-03-28T01:59:34.956Z,9.638977
2019-03-28T01:59:47.023Z,9.608765
2019-03-28T02:00:01.095Z,9.638977
2019-03-28T02:00:13.155Z,9.638977
2019-03-28T02:00:25.219Z,9.638977
2019-03-28T02:00:38.364Z,9.608765
2019-03-28T02:00:50.356Z,9.638977
2019-03-28T02:01:03.851Z,9.638977
2019-03-28T02:01:17.475Z,9.638977
2019-03-28T02:01:30.104Z,9.638977
2019-03-28T02:01:41.649Z,9.638977
2019-03-28T02:01:54.730Z,9.638977
2019-03-28T02:02:06.742Z,9.638977
2019-03-28T02:02:20.194Z,9.608765
2019-03-28T02:02:31.830Z,9.638977
2019-03-28T02:02:43.891Z,9.638977
2019-03-28T02:02:55.973Z,9.638977
2019-03-28T02:03:09.031Z,9.638977
2019-03-28T02:03:21.103Z,9.649048
2019-03-28T02:03:33.172Z,9.638977
2019-03-28T02:03:45.254Z,9.649048
2019-03-28T02:03:57.342Z,9.638977
2019-03-28T02:04:09.434Z,9.638977
2019-03-28T02:04:21.501Z,9.638977
2019-03-28T02:04:33.544Z,9.638977
2019-03-28T02:04:45.615Z,9.638977
2019-03-28T02:04:57.686Z,9.659119
2019-03-28T02:05:09.896Z,9.649048
2019-03-28T02:05:21.999Z,9.649048
2019-03-28T02:05:34.097Z,9.638977
2019-03-28T02:05:46.177Z,9.638977
2019-03-28T02:05:58.268Z,9.638977
2019-03-28T02:06:10.325Z,9.649048
2019-03-28T02:06:22.412Z,9.638977
2019-03-28T02:06:34.479Z,9.638977
2019-03-28T02:06:46.540Z,9.649048
2019-03-28T02:06:59.604Z,9.649048
2019-03-28T02:07:11.675Z,9.638977
2019-03-28T02:07:23.716Z,9.649048
2019-03-28T02:07:35.795Z,9.638977
2019-03-28T02:07:47.859Z,9.638977
2019-03-28T02:08:02.557Z,9.638977
2019-03-28T02:08:13.021Z,9.638977
2019-03-28T02:08:28.064Z,9.638977
2019-03-28T02:08:40.145Z,9.638977
2019-03-28T02:08:53.215Z,9.638977
2019-03-28T02:09:06.105Z,9.608765
2019-03-28T02:09:17.338Z,9.608765
2019-03-28T02:09:29.441Z,9.608765
2019-03-28T02:09:41.550Z,9.608765
2019-03-28T02:09:53.598Z,9.608765
2019-03-28T02:10:05.662Z,9.598694
2019-03-28T02:10:18.732Z,9.608765
2019-03-28T02:10:30.833Z,9.598694
2019-03-28T02:10:43.930Z,9.608765
2019-03-28T02:10:56.014Z,9.608765
2019-03-28T02:11:08.093Z,9.608765
2019-03-28T02:11:21.159Z,9.608765
2019-03-28T02:11:33.235Z,9.608765
2019-03-28T02:11:45.322Z,9.598694
2019-03-28T02:11:57.452Z,9.608765
2019-03-28T02:12:10.539Z,9.608765
2019-03-28T02:12:22.617Z,9.608765
2019-03-28T02:12:34.698Z,9.598694
2019-03-28T02:12:46.750Z,9.598694
2019-03-28T02:12:58.810Z,9.598694
2019-03-28T02:13:10.890Z,9.598694
2019-03-28T02:13:22.938Z,9.608765
2019-03-28T02:13:35.003Z,9.608765
2019-03-28T02:13:47.290Z,9.608765
2019-03-28T02:13:59.188Z,9.608765
2019-03-28T02:14:12.403Z,9.608765
2019-03-28T02:14:24.337Z,9.638977
2019-03-28T02:14:36.397Z,9.608765
2019-03-28T02:14:48.479Z,9.608765
2019-03-28T02:15:00.574Z,9.608765
2019-03-28T02:15:12.668Z,9.608765
2019-03-28T02:15:24.717Z,9.598694
2019-03-28T02:15:36.812Z,9.608765
2019-03-28T02:15:48.879Z,9.598694
2019-03-28T02:16:00.958Z,9.598694
2019-03-28T02:16:13.044Z,9.598694
2019-03-28T02:16:25.202Z,9.598694
2019-03-28T02:16:37.288Z,9.598694
2019-03-28T02:16:49.352Z,9.598694
2019-03-28T02:17:01.413Z,9.598694
2019-03-28T02:17:14.520Z,9.598694
2019-03-28T02:17:27.579Z,9.598694
2019-03-28T02:17:39.663Z,9.598694
2019-03-28T02:17:52.772Z,9.578552
2019-03-28T02:18:04.838Z,9.598694
2019-03-28T02:18:16.925Z,9.578552
2019-03-28T02:18:29.261Z,9.578552
2019-03-28T02:18:41.092Z,9.578552
2019-03-28T02:18:53.202Z,9.598694
2019-03-28T02:19:05.314Z,9.578552
2019-03-28T02:19:19.250Z,9.598694
2019-03-28T02:19:30.434Z,9.578552
2019-03-28T02:19:43.511Z,9.598694
2019-03-28T02:19:55.563Z,9.578552
2019-03-28T02:20:07.661Z,9.598694
2019-03-28T02:20:20.733Z,9.578552
2019-03-28T02:20:32.824Z,9.578552
2019-03-28T02:20:44.903Z,9.578552
2019-03-28T02:20:56.996Z,9.578552
2019-03-28T02:21:10.068Z,9.578552
2019-03-28T02:21:22.131Z,9.578552
2019-03-28T02:21:34.215Z,9.578552
2019-03-28T02:21:46.284Z,9.578552
2019-03-28T02:21:59.342Z,9.578552
2019-03-28T02:22:11.421Z,9.578552
2019-03-28T02:22:23.468Z,9.578552
2019-03-28T02:22:35.552Z,9.578552
2019-03-28T02:22:47.595Z,9.578552
2019-03-28T02:22:59.658Z,9.598694
2019-03-28T02:23:11.731Z,9.598694
2019-03-28T02:23:23.796Z,9.578552
2019-03-28T02:23:36.282Z,9.578552
2019-03-28T02:23:48.050Z,9.578552
2019-03-28T02:24:00.120Z,9.578552
2019-03-28T02:24:12.182Z,9.568481
2019-03-28T02:24:24.296Z,9.578552
2019-03-28T02:24:36.364Z,9.568481
2019-03-28T02:24:48.419Z,9.568481
2019-03-28T02:25:00.459Z,9.578552